AirNav   Pilot Hours Calculator
 
 672 users online  

7KY5 Barbourville ARH Heliport
Barbourville, Kentucky, USA

GOING TO BARBOURVILLE?


FAA INFORMATION EFFECTIVE 28 MARCH 2019

Location

FAA Identifier: 7KY5
Lat/Long: 36-51-06.0000N / 083-52-09.0000W
36-51.100000N / 083-52.150000W
36.8516667 / -83.8691667
(estimated)
Elevation: 1013 ft. / 309 m (estimated)
From city: 1 mile SE of BARBOURVILLE, KY
Time zone: UTC -4 (UTC -5 during Standard Time)
Zip code: 40906

Heliport Operations

Heliport use: Private use. Permission required prior to landing
Activation date: 06/2010
Control tower: no
ARTCC: INDIANAPOLIS CENTER
FSS: LOUISVILLE FLIGHT SERVICE STATION
Attendance: CONTINUOUS
Wind indicator: yes
Segmented circle: no

Heliport Communications

WX AWOS-3 at 1A6 (16 nm SE): 119.425 (606-248-3095)
WX AWOS-3 at BYL (16 nm W): 119.575 (606-549-1585)
WX ASOS at LOZ (17 nm NW): 119.075 (606-877-1699)

Nearby radio navigation aids

VOR radial/distance  VOR name  Freq  Var
LOZr136/15.9LONDON VOR/DME116.1003W

 
NDB name  Hdg/Dist  Freq  Var  ID
CUMBERLAND RIVER108/39.938805WCDX -.-. -.. -..-

Heliport Services

Runway Information

Helipad H1

Dimensions: 60 x 60 ft. / 18 x 18 m
Surface: concrete
Latitude: 36-51.100000N
Longitude: 083-52.150000W
Elevation: 1013.0 ft.
Traffic pattern: leftleft

Heliport Ownership and Management from official FAA records

Ownership: Privately-owned
Owner: BARBOURVILLE ARH
80 HOSPITAL DR
BARBOURVILLE, KY 40906
Phone 606-546-4175
Manager: TAMMY PATTERSON
80 HOSPITAL DR
BARBOURVILLE, KY 40906
Phone (606) 545-5526
ADDITIONAL CONTACT: AMANDA ELLIS - 606-545-5543

Additional Remarks

OWNER DESIRES ARPT NOT BE CHARTED.

Instrument Procedures

There are no published instrument procedures at 7KY5.

Some nearby airports with instrument procedures:

1A6 - Middlesboro-Bell County Airport (16 nm SE)
KBYL - Williamsburg-Whitley County Airport (16 nm W)
KLOZ - London-Corbin Airport-Magee Field (17 nm NW)
I35 - Tucker-Guthrie Memorial Airport (25 nm E)
18I - Mc Creary County Airport (27 nm W)
 
Loc | Ops | Rwys | IFR | FBO | Links
Com | Nav | Svcs | Stats | Notes
Aerial photo
No photo
 
Airport distance calculator
Flying to Barbourville ARH Heliport? Find the distance to fly.

From to 7KY5

Sunrise and sunset
Times for 20-Apr-2019
 Local
(UTC-4)
 Zulu
(UTC)
Morning civil twilight06:2910:29
Sunrise06:5610:56
Sunset20:1300:13
Evening civil twilight20:4000:40

Current date and time
Zulu (UTC)  21-Apr-2019 03:33:56
Local (UTC-4)  20-Apr-2019 23:33:56
 
METAR
K1A6 
16nm SE 
210315Z AUTO 00000KT 10SM DZ OVC022 07/06 A2989 RMK AO2 T00680063
KBYL 
16nm W 
210315Z AUTO 00000KT 5SM OVC021 05/05 A2989 RMK AO1
KLOZ 
17nm NW 
210322Z AUTO 31005KT 10SM -RA SCT013 OVC019 06/05 A2989 RMK AO2 T00610050 PNO $
KI35 
25nm E 
210315Z AUTO 00000KT 10SM SCT006 OVC017 05/05 A2987 RMK AO2 T00520048
TAF
KLOZ 
17nm NW 
201721Z 2018/2118 24008KT 6SM -SHRA BR OVC015 FM210100 26007KT P6SM VCSH OVC009 FM210600 28005KT P6SM VCSH OVC005 FM211000 VRB04KT P6SM BKN007 FM211200 VRB04KT P6SM SCT009
NOTAMs
Click for the latest NOTAMs
NOTAMs are issued by the DoD/FAA and will open in a separate window not controlled by AirNav.

 

 
 

Would you like to see your business listed on this page?

 If your business provides an interesting product or service to pilots, flight crews, aircraft, or users of the Barbourville ARH Heliport, you should consider listing it here.  To start the listing process, click on the button below
 
Add a business
 

Other Pages about Barbourville ARH Heliport

Update a link
 
Copyright © AirNav, LLC. All rights reserved. Privacy Policy  Contact